createdAt,value
2019-03-20T00:00:02.359Z,5.40
2019-03-20T00:01:02.292Z,5.40
2019-03-20T00:02:02.313Z,5.10
2019-03-20T00:03:02.308Z,5.40
2019-03-20T00:04:02.308Z,5.30
2019-03-20T00:05:02.329Z,5.20
2019-03-20T00:06:02.293Z,4.90
2019-03-20T00:07:02.300Z,4.80
2019-03-20T00:08:02.314Z,4.70
2019-03-20T00:09:02.373Z,4.60
2019-03-20T00:10:02.342Z,4.40
2019-03-20T00:11:02.331Z,4.90
2019-03-20T00:12:02.341Z,4.30
2019-03-20T00:13:02.347Z,4.60
2019-03-20T00:14:02.332Z,4.00
2019-03-20T00:15:02.395Z,4.00
2019-03-20T00:16:02.372Z,4.70
2019-03-20T00:17:04.037Z,4.70
2019-03-20T00:18:02.334Z,4.50
2019-03-20T00:19:02.349Z,5.00
2019-03-20T00:20:02.398Z,4.80
2019-03-20T00:21:02.374Z,5.00
2019-03-20T00:22:02.355Z,4.70
2019-03-20T00:23:02.367Z,4.80
2019-03-20T00:24:02.358Z,5.00
2019-03-20T00:25:02.360Z,4.80
2019-03-20T00:26:02.437Z,4.90
2019-03-20T00:27:02.365Z,4.50
2019-03-20T00:28:02.380Z,4.40
2019-03-20T00:29:02.386Z,4.80
2019-03-20T00:30:02.397Z,4.60
2019-03-20T00:31:02.453Z,5.00
2019-03-20T00:32:02.370Z,5.30
2019-03-20T00:33:02.383Z,5.30
2019-03-20T00:34:02.382Z,4.90
2019-03-20T00:35:02.414Z,5.00
2019-03-20T00:36:02.396Z,4.80
2019-03-20T00:37:02.458Z,4.90
2019-03-20T00:38:02.403Z,5.90
2019-03-20T00:39:02.399Z,5.30
2019-03-20T00:40:02.407Z,5.10
2019-03-20T00:41:02.417Z,4.90
2019-03-20T00:42:02.461Z,4.90
2019-03-20T00:43:02.409Z,4.40
2019-03-20T00:44:02.440Z,4.70
2019-03-20T00:45:02.437Z,4.30
2019-03-20T00:46:02.427Z,4.40
2019-03-20T00:47:02.433Z,5.00
2019-03-20T00:48:02.475Z,4.90
2019-03-20T00:49:02.437Z,4.40
2019-03-20T00:50:02.452Z,4.40
2019-03-20T00:51:02.450Z,3.90
2019-03-20T00:52:02.459Z,3.80
2019-03-20T00:53:02.471Z,4.30
2019-03-20T00:54:02.515Z,3.70
2019-03-20T00:55:02.463Z,4.10
2019-03-20T00:56:02.470Z,3.60
2019-03-20T00:57:02.476Z,4.00
2019-03-20T00:58:02.501Z,3.60
2019-03-20T00:59:02.474Z,3.80
2019-03-20T01:00:02.492Z,4.20
2019-03-20T01:01:02.469Z,4.20
2019-03-20T01:02:02.510Z,4.00
2019-03-20T01:03:02.522Z,4.10
2019-03-20T01:04:02.483Z,4.80
2019-03-20T01:05:12.236Z,4.50
2019-03-20T01:06:02.482Z,3.90
2019-03-20T01:07:02.487Z,4.00
2019-03-20T01:08:02.556Z,4.20
2019-03-20T01:09:02.500Z,4.10
2019-03-20T01:10:02.490Z,3.90
2019-03-20T01:11:02.509Z,4.30
2019-03-20T01:12:02.528Z,4.70
2019-03-20T01:13:02.515Z,3.50
2019-03-20T01:14:02.678Z,4.30
2019-03-20T01:15:02.518Z,4.20
2019-03-20T01:16:02.546Z,4.00
2019-03-20T01:17:02.510Z,4.20
2019-03-20T01:18:02.531Z,3.80
2019-03-20T01:19:02.564Z,3.90
2019-03-20T01:20:02.543Z,4.30
2019-03-20T01:21:02.556Z,4.50
2019-03-20T01:22:02.551Z,4.00
2019-03-20T01:23:02.551Z,3.70
2019-03-20T01:24:02.555Z,3.80
2019-03-20T01:25:02.557Z,4.00
2019-03-20T01:26:02.586Z,4.70
2019-03-20T01:27:02.540Z,4.60
2019-03-20T01:28:02.554Z,3.80
2019-03-20T01:29:02.641Z,3.50
2019-03-20T01:30:02.573Z,4.50
2019-03-20T01:31:02.607Z,4.50
2019-03-20T01:32:02.610Z,4.30
2019-03-20T01:33:02.573Z,4.40
2019-03-20T01:34:02.567Z,4.10
2019-03-20T01:35:02.579Z,5.90
2019-03-20T01:36:02.584Z,4.80
2019-03-20T01:37:02.605Z,4.10
2019-03-20T01:38:02.597Z,4.50
2019-03-20T01:39:02.623Z,4.80
2019-03-20T01:40:02.626Z,5.10
2019-03-20T01:41:02.593Z,6.20
2019-03-20T01:42:02.651Z,5.60
2019-03-20T01:43:02.590Z,5.90
2019-03-20T01:44:02.591Z,4.60
2019-03-20T01:45:02.616Z,3.90
2019-03-20T01:46:02.652Z,4.30
2019-03-20T01:47:02.629Z,4.30
2019-03-20T01:48:02.661Z,4.60
2019-03-20T01:49:02.620Z,5.10
2019-03-20T01:50:02.625Z,5.40
2019-03-20T01:51:02.637Z,6.50
2019-03-20T01:52:02.663Z,5.10
2019-03-20T01:53:02.658Z,4.80
2019-03-20T01:54:02.667Z,4.80
2019-03-20T01:55:02.647Z,6.20
2019-03-20T01:56:02.643Z,7.20
2019-03-20T01:57:02.643Z,5.50
2019-03-20T01:58:02.700Z,5.50
2019-03-20T01:59:02.657Z,4.50
2019-03-20T02:00:02.666Z,5.30
2019-03-20T02:01:02.666Z,4.90
2019-03-20T02:02:02.654Z,5.30
2019-03-20T02:03:02.693Z,5.70
2019-03-20T02:04:02.653Z,5.50
2019-03-20T02:05:02.676Z,6.30
2019-03-20T02:06:02.680Z,6.70
2019-03-20T02:07:02.659Z,6.00
2019-03-20T02:08:02.715Z,6.80
2019-03-20T02:09:02.668Z,6.30
2019-03-20T02:10:02.690Z,6.40
2019-03-20T02:11:02.686Z,6.10
2019-03-20T02:12:02.690Z,5.30
2019-03-20T02:13:02.695Z,5.00
2019-03-20T02:14:02.764Z,5.40
2019-03-20T02:15:02.720Z,6.90
2019-03-20T02:16:02.709Z,6.60
2019-03-20T02:17:02.737Z,5.30
2019-03-20T02:18:02.708Z,5.30
2019-03-20T02:19:02.733Z,5.60
2019-03-20T02:20:02.779Z,6.00
2019-03-20T02:21:02.702Z,6.80
2019-03-20T02:22:02.732Z,6.10
2019-03-20T02:23:02.723Z,5.00
2019-03-20T02:24:02.730Z,6.00
2019-03-20T02:25:02.729Z,7.10
2019-03-20T02:26:02.741Z,6.50
2019-03-20T02:27:02.743Z,6.30
2019-03-20T02:28:02.772Z,5.80
2019-03-20T02:29:02.744Z,6.30
2019-03-20T02:30:02.787Z,6.20
2019-03-20T02:31:02.752Z,6.70
2019-03-20T02:32:02.736Z,5.50
2019-03-20T02:33:02.749Z,4.60
2019-03-20T02:34:02.747Z,5.40
2019-03-20T02:35:02.795Z,5.80
2019-03-20T02:36:02.804Z,5.70
2019-03-20T02:37:02.760Z,6.20
2019-03-20T02:38:02.769Z,5.00
2019-03-20T02:39:02.772Z,5.00
2019-03-20T02:40:02.818Z,5.40
2019-03-20T02:41:02.782Z,5.20
2019-03-20T02:42:02.809Z,5.00
2019-03-20T02:43:02.809Z,5.30
2019-03-20T02:44:02.800Z,5.40
2019-03-20T02:45:02.774Z,5.40
2019-03-20T02:46:02.810Z,5.40
2019-03-20T02:47:02.840Z,4.90
2019-03-20T02:48:02.806Z,5.50
2019-03-20T02:49:02.889Z,5.20
2019-03-20T02:50:02.795Z,4.80
2019-03-20T02:51:02.818Z,5.40
2019-03-20T02:52:04.246Z,5.30
2019-03-20T02:53:02.799Z,5.20
2019-03-20T02:54:02.805Z,4.40
2019-03-20T02:55:02.818Z,5.00
2019-03-20T02:56:02.846Z,5.60
2019-03-20T02:57:02.857Z,5.10
2019-03-20T02:58:02.878Z,5.90
2019-03-20T02:59:02.830Z,4.50
2019-03-20T03:00:02.837Z,5.20
2019-03-20T03:01:02.860Z,5.10
2019-03-20T03:02:02.824Z,5.00
2019-03-20T03:03:02.841Z,5.20
2019-03-20T03:04:02.891Z,5.10
2019-03-20T03:05:02.852Z,5.50
2019-03-20T03:06:07.117Z,4.60
2019-03-20T03:07:02.839Z,4.50
2019-03-20T03:08:02.877Z,4.70
2019-03-20T03:09:02.846Z,5.30
2019-03-20T03:10:02.873Z,5.40
2019-03-20T03:11:02.877Z,4.60
2019-03-20T03:12:02.863Z,5.30
2019-03-20T03:13:02.900Z,5.40
2019-03-20T03:14:02.885Z,4.30
2019-03-20T03:15:02.900Z,4.00
2019-03-20T03:16:02.875Z,4.00
2019-03-20T03:17:02.870Z,4.50
2019-03-20T03:18:02.907Z,4.00
2019-03-20T03:19:02.904Z,4.70
2019-03-20T03:20:02.876Z,5.10
2019-03-20T03:21:02.890Z,4.10
2019-03-20T03:22:02.888Z,5.30
2019-03-20T03:23:02.902Z,5.70
2019-03-20T03:24:02.908Z,5.40
2019-03-20T03:25:02.924Z,5.10
2019-03-20T03:26:02.919Z,5.20
2019-03-20T03:27:02.892Z,5.30
2019-03-20T03:28:02.906Z,4.50
2019-03-20T03:29:02.940Z,5.10
2019-03-20T03:30:02.909Z,4.60
2019-03-20T03:31:02.912Z,5.60
2019-03-20T03:32:02.922Z,5.50
2019-03-20T03:33:02.931Z,5.90
2019-03-20T03:34:02.940Z,6.00
2019-03-20T03:35:02.966Z,5.50
2019-03-20T03:36:02.921Z,5.50
2019-03-20T03:37:02.954Z,5.00
2019-03-20T03:38:02.936Z,4.80
2019-03-20T03:39:02.985Z,4.70
2019-03-20T03:40:02.932Z,5.20
2019-03-20T03:41:02.949Z,4.40
2019-03-20T03:42:02.959Z,5.10
2019-03-20T03:43:02.956Z,4.40
2019-03-20T03:44:02.951Z,4.90
2019-03-20T03:45:02.969Z,4.90
2019-03-20T03:46:02.976Z,4.60
2019-03-20T03:47:02.951Z,4.30
2019-03-20T03:48:02.997Z,4.80
2019-03-20T03:49:02.980Z,5.00
2019-03-20T03:50:02.997Z,4.50
2019-03-20T03:51:02.967Z,4.70
2019-03-20T03:52:02.966Z,4.90
2019-03-20T03:53:02.989Z,5.40
2019-03-20T03:54:02.988Z,5.40
2019-03-20T03:55:02.995Z,5.40
2019-03-20T03:56:02.988Z,4.70
2019-03-20T03:57:03.014Z,5.20
2019-03-20T03:58:03.013Z,5.00
2019-03-20T03:59:03.000Z,4.40
2019-03-20T04:00:03.012Z,5.00
2019-03-20T04:01:03.006Z,4.80
2019-03-20T04:02:03.002Z,4.10
2019-03-20T04:03:03.010Z,4.40
2019-03-20T04:04:03.050Z,4.50
2019-03-20T04:05:03.056Z,4.50
2019-03-20T04:06:03.043Z,4.70
2019-03-20T04:07:03.027Z,4.70
2019-03-20T04:08:03.013Z,4.90
2019-03-20T04:09:03.010Z,4.80
2019-03-20T04:10:03.015Z,5.30
2019-03-20T04:11:03.042Z,4.70
2019-03-20T04:12:03.063Z,4.70
2019-03-20T04:13:03.023Z,4.40
2019-03-20T04:14:03.111Z,5.00
2019-03-20T04:15:03.065Z,4.40
2019-03-20T04:16:03.038Z,4.30
2019-03-20T04:17:03.027Z,4.90
2019-03-20T04:18:03.041Z,4.70
2019-03-20T04:19:03.045Z,4.60
2019-03-20T04:20:03.103Z,4.80
2019-03-20T04:21:03.052Z,4.50
2019-03-20T04:22:03.057Z,3.80
2019-03-20T04:23:03.078Z,4.30
2019-03-20T04:24:03.089Z,4.30
2019-03-20T04:25:03.094Z,3.80
2019-03-20T04:26:03.098Z,4.80
2019-03-20T04:27:03.069Z,4.80
2019-03-20T04:28:03.107Z,4.50
2019-03-20T04:29:03.210Z,4.50
2019-03-20T04:30:03.073Z,4.70
2019-03-20T04:31:03.081Z,4.30
2019-03-20T04:32:03.094Z,4.60
2019-03-20T04:33:03.092Z,4.20
2019-03-20T04:34:03.095Z,4.20
2019-03-20T04:35:03.096Z,4.90
2019-03-20T04:36:03.115Z,4.40
2019-03-20T04:37:03.079Z,4.60
2019-03-20T04:38:03.115Z,3.80
2019-03-20T04:39:03.111Z,4.30
2019-03-20T04:40:03.097Z,4.30
2019-03-20T04:41:03.132Z,4.10
2019-03-20T04:42:03.113Z,4.20
2019-03-20T04:43:03.105Z,4.60
2019-03-20T04:44:03.102Z,4.20
2019-03-20T04:45:03.134Z,4.50
2019-03-20T04:46:03.141Z,4.20
2019-03-20T04:47:03.112Z,4.20
2019-03-20T04:48:03.132Z,4.10
2019-03-20T04:49:03.136Z,4.00
2019-03-20T04:50:03.139Z,4.20
2019-03-20T04:51:03.115Z,3.80
2019-03-20T04:52:03.168Z,4.30
2019-03-20T04:53:03.151Z,4.00
2019-03-20T04:54:03.133Z,4.40
2019-03-20T04:55:03.199Z,4.60
2019-03-20T04:56:03.145Z,4.80
2019-03-20T04:57:03.315Z,4.30
2019-03-20T04:58:03.242Z,4.50
2019-03-20T04:59:03.364Z,4.50
2019-03-20T05:00:03.190Z,4.70
2019-03-20T05:01:03.202Z,4.60
2019-03-20T05:02:03.186Z,5.00
2019-03-20T05:03:03.179Z,5.30
2019-03-20T05:04:03.178Z,4.60
2019-03-20T05:05:03.157Z,5.10
2019-03-20T05:06:03.171Z,5.00
2019-03-20T05:07:03.265Z,4.80
2019-03-20T05:08:03.177Z,4.60
2019-03-20T05:09:03.166Z,4.50
2019-03-20T05:10:03.188Z,4.40
2019-03-20T05:11:03.187Z,4.30
2019-03-20T05:12:03.199Z,4.20
2019-03-20T05:13:03.205Z,4.40
2019-03-20T05:14:03.223Z,4.50
2019-03-20T05:15:03.201Z,4.20
2019-03-20T05:16:03.192Z,4.20
2019-03-20T05:17:03.224Z,4.40
2019-03-20T05:18:03.209Z,4.40
2019-03-20T05:19:03.197Z,4.10
2019-03-20T05:20:03.189Z,4.00
2019-03-20T05:21:03.236Z,3.70
2019-03-20T05:22:03.258Z,3.90
2019-03-20T05:23:03.242Z,3.70
2019-03-20T05:24:03.267Z,4.20
2019-03-20T05:25:03.216Z,3.70
2019-03-20T05:26:03.222Z,3.80
2019-03-20T05:27:03.239Z,3.50
2019-03-20T05:28:03.301Z,4.00
2019-03-20T05:29:03.223Z,4.30
2019-03-20T05:30:03.216Z,4.40
2019-03-20T05:31:03.243Z,4.70
2019-03-20T05:32:03.232Z,4.50
2019-03-20T05:33:03.230Z,4.30
2019-03-20T05:34:03.256Z,4.20
2019-03-20T05:35:03.261Z,4.30
2019-03-20T05:36:03.247Z,6.90
2019-03-20T05:37:10.184Z,7.40
2019-03-20T05:38:03.264Z,5.40
2019-03-20T05:39:03.353Z,4.10
2019-03-20T05:40:03.242Z,4.50
2019-03-20T05:41:03.248Z,4.70
2019-03-20T05:42:03.287Z,4.50
2019-03-20T05:43:03.261Z,4.80
2019-03-20T05:44:03.273Z,5.00
2019-03-20T05:45:03.336Z,4.60
2019-03-20T05:46:03.270Z,4.60
2019-03-20T05:47:03.278Z,5.00
2019-03-20T05:48:03.353Z,4.70
2019-03-20T05:49:03.291Z,4.40
2019-03-20T05:50:03.297Z,4.70
2019-03-20T05:51:03.291Z,4.90
2019-03-20T05:52:03.288Z,5.40
2019-03-20T05:53:03.333Z,5.10
2019-03-20T05:54:03.386Z,5.40
2019-03-20T05:55:03.310Z,4.90
2019-03-20T05:56:03.304Z,5.50
2019-03-20T05:57:03.301Z,5.00
2019-03-20T05:58:03.303Z,5.30
2019-03-20T05:59:03.331Z,5.90
2019-03-20T06:00:03.343Z,5.00
2019-03-20T06:01:03.322Z,5.30
2019-03-20T06:02:03.322Z,5.30
2019-03-20T06:03:03.336Z,5.40
2019-03-20T06:04:03.393Z,5.10
2019-03-20T06:05:03.454Z,5.10
2019-03-20T06:06:03.343Z,5.00
2019-03-20T06:07:03.346Z,4.90
2019-03-20T06:08:03.374Z,5.80
2019-03-20T06:09:03.341Z,5.80
2019-03-20T06:10:03.364Z,5.70
2019-03-20T06:11:03.417Z,4.70
2019-03-20T06:12:03.361Z,5.50
2019-03-20T06:13:03.369Z,5.10
2019-03-20T06:14:03.371Z,4.90
2019-03-20T06:15:04.767Z,4.80
2019-03-20T06:16:03.443Z,5.10
2019-03-20T06:17:03.417Z,4.80
2019-03-20T06:18:03.397Z,5.10
2019-03-20T06:19:03.399Z,5.30
2019-03-20T06:20:03.392Z,5.50
2019-03-20T06:21:03.420Z,7.30
2019-03-20T06:22:03.540Z,7.40
2019-03-20T06:23:03.398Z,8.10
2019-03-20T06:24:03.452Z,8.90
2019-03-20T06:25:03.428Z,8.00
2019-03-20T06:26:03.470Z,7.70
2019-03-20T06:27:03.469Z,8.30
2019-03-20T06:28:03.448Z,9.10
2019-03-20T06:29:03.478Z,8.30
2019-03-20T06:30:03.487Z,6.80
2019-03-20T06:31:03.455Z,7.50
2019-03-20T06:32:03.502Z,6.90
2019-03-20T06:33:03.499Z,6.60
2019-03-20T06:34:03.449Z,7.20
2019-03-20T06:35:03.463Z,6.20
2019-03-20T06:36:03.847Z,6.70
2019-03-20T06:37:03.478Z,6.40
2019-03-20T06:38:03.535Z,5.50
2019-03-20T06:39:05.016Z,5.30
2019-03-20T06:40:03.482Z,5.80
2019-03-20T06:41:03.502Z,5.80
2019-03-20T06:42:03.498Z,6.00
2019-03-20T06:43:03.499Z,5.60
2019-03-20T06:44:03.525Z,5.70
2019-03-20T06:45:03.507Z,5.30
2019-03-20T06:46:03.555Z,5.70
2019-03-20T06:47:03.532Z,6.20
2019-03-20T06:48:03.551Z,6.40
2019-03-20T06:49:03.551Z,6.20
2019-03-20T06:50:03.553Z,5.80
2019-03-20T06:51:03.522Z,5.30
2019-03-20T06:52:03.683Z,6.30
2019-03-20T06:53:03.545Z,5.90
2019-03-20T06:54:03.540Z,5.90
2019-03-20T06:55:03.565Z,6.30
2019-03-20T06:56:03.578Z,6.00
2019-03-20T06:57:03.545Z,6.00
2019-03-20T06:58:03.582Z,6.10
2019-03-20T06:59:03.702Z,6.00
2019-03-20T07:00:05.494Z,6.00
2019-03-20T07:01:03.694Z,6.00
2019-03-20T07:02:03.566Z,6.20
2019-03-20T07:03:03.597Z,6.60
2019-03-20T07:04:03.615Z,5.60
2019-03-20T07:05:03.575Z,5.50
2019-03-20T07:06:03.609Z,6.00
2019-03-20T07:07:03.587Z,6.20
2019-03-20T07:08:03.848Z,5.60
2019-03-20T07:09:03.600Z,5.60
2019-03-20T07:10:03.627Z,5.30
2019-03-20T07:11:03.642Z,5.70
2019-03-20T07:12:03.608Z,6.30
2019-03-20T07:13:03.622Z,5.90
2019-03-20T07:14:03.600Z,5.60
2019-03-20T07:15:03.621Z,5.10
2019-03-20T07:16:03.635Z,5.30
2019-03-20T07:17:03.673Z,5.60
2019-03-20T07:18:03.652Z,4.90
2019-03-20T07:19:03.630Z,5.30
2019-03-20T07:20:03.638Z,4.90
2019-03-20T07:21:03.644Z,5.40
2019-03-20T07:22:03.672Z,5.70
2019-03-20T07:23:03.647Z,5.50
2019-03-20T07:24:03.681Z,5.00
2019-03-20T07:25:03.658Z,5.20
2019-03-20T07:26:03.653Z,5.30
2019-03-20T07:27:03.659Z,5.20
2019-03-20T07:28:03.749Z,5.30
2019-03-20T07:29:03.662Z,5.30
2019-03-20T07:30:03.681Z,5.50
2019-03-20T07:31:14.261Z,5.10
2019-03-20T07:32:03.735Z,5.30
2019-03-20T07:33:03.727Z,4.90
2019-03-20T07:34:03.691Z,5.30
2019-03-20T07:35:03.694Z,5.80
2019-03-20T07:36:03.692Z,6.30
2019-03-20T07:37:03.714Z,6.50
2019-03-20T07:38:03.846Z,5.50
2019-03-20T07:39:03.708Z,5.60
2019-03-20T07:40:03.712Z,5.30
2019-03-20T07:41:03.718Z,4.90
2019-03-20T07:42:03.722Z,5.40
2019-03-20T07:43:08.616Z,5.00
2019-03-20T07:44:03.781Z,4.80
2019-03-20T07:45:03.872Z,4.90
2019-03-20T07:46:03.747Z,4.60
2019-03-20T07:47:03.739Z,5.00
2019-03-20T07:48:03.727Z,4.40
2019-03-20T07:49:03.747Z,5.00
2019-03-20T07:50:03.782Z,4.60
2019-03-20T07:51:03.794Z,4.60
2019-03-20T07:52:03.768Z,4.70
2019-03-20T07:53:03.739Z,4.40
2019-03-20T07:54:03.773Z,4.30
2019-03-20T07:55:03.761Z,4.10
2019-03-20T07:56:03.780Z,4.00
2019-03-20T07:57:03.776Z,4.00
2019-03-20T07:58:03.770Z,3.80
2019-03-20T07:59:03.832Z,4.90
2019-03-20T08:00:03.787Z,3.90
2019-03-20T08:01:03.790Z,3.60
2019-03-20T08:02:03.798Z,4.00
2019-03-20T08:03:03.809Z,4.20
2019-03-20T08:04:03.829Z,4.20
2019-03-20T08:05:03.810Z,3.90
2019-03-20T08:06:03.850Z,3.90
2019-03-20T08:07:03.811Z,4.00
2019-03-20T08:08:07.652Z,4.40
2019-03-20T08:09:03.838Z,4.50
2019-03-20T08:10:03.865Z,4.10
2019-03-20T08:11:03.821Z,4.00
2019-03-20T08:12:03.828Z,4.30
2019-03-20T08:13:03.864Z,3.70
2019-03-20T08:14:03.832Z,4.30
2019-03-20T08:15:03.843Z,4.10
2019-03-20T08:16:04.151Z,4.10
2019-03-20T08:17:03.846Z,4.30
2019-03-20T08:18:03.863Z,4.10
2019-03-20T08:19:03.873Z,4.40
2019-03-20T08:20:03.869Z,4.30
2019-03-20T08:21:03.880Z,3.90
2019-03-20T08:22:03.884Z,3.90
2019-03-20T08:23:03.886Z,4.10
2019-03-20T08:24:03.904Z,4.00
2019-03-20T08:25:03.891Z,3.90
2019-03-20T08:26:03.871Z,4.10
2019-03-20T08:27:03.963Z,4.00
2019-03-20T08:28:03.889Z,4.00
2019-03-20T08:29:03.897Z,3.80
2019-03-20T08:30:03.954Z,4.00
2019-03-20T08:31:03.921Z,3.70
2019-03-20T08:32:03.907Z,4.00
2019-03-20T08:33:03.923Z,3.90
2019-03-20T08:34:03.950Z,3.90
2019-03-20T08:35:03.917Z,3.70
2019-03-20T08:36:03.991Z,3.60
2019-03-20T08:37:03.933Z,4.20
2019-03-20T08:38:04.087Z,3.90
2019-03-20T08:39:03.949Z,4.30
2019-03-20T08:40:03.961Z,4.10
2019-03-20T08:41:03.932Z,3.70
2019-03-20T08:42:03.939Z,4.00
2019-03-20T08:43:03.953Z,3.80
2019-03-20T08:44:03.944Z,3.70
2019-03-20T08:45:03.998Z,4.60
2019-03-20T08:46:03.963Z,3.80
2019-03-20T08:47:03.962Z,4.10
2019-03-20T08:48:03.964Z,3.90
2019-03-20T08:49:04.023Z,3.80
2019-03-20T08:50:04.012Z,4.00
2019-03-20T08:51:03.987Z,4.10
2019-03-20T08:52:04.016Z,4.00
2019-03-20T08:53:04.025Z,3.60
2019-03-20T08:54:04.015Z,3.60
2019-03-20T08:55:03.995Z,4.00
2019-03-20T08:56:04.082Z,4.10
2019-03-20T08:57:04.019Z,3.80
2019-03-20T08:58:04.011Z,3.90
2019-03-20T08:59:04.037Z,3.80
2019-03-20T09:00:04.028Z,4.10
2019-03-20T09:01:04.041Z,4.00
2019-03-20T09:02:04.047Z,3.90
2019-03-20T09:03:04.079Z,4.70
2019-03-20T09:04:04.055Z,4.40
2019-03-20T09:05:04.060Z,4.00
2019-03-20T09:06:04.073Z,4.00
2019-03-20T09:07:04.069Z,4.00
2019-03-20T09:08:04.048Z,4.00
2019-03-20T09:09:04.053Z,4.00
2019-03-20T09:10:04.211Z,3.60
2019-03-20T09:11:04.121Z,3.20
2019-03-20T09:12:04.090Z,4.80
2019-03-20T09:13:04.082Z,4.00
2019-03-20T09:14:04.090Z,3.40
2019-03-20T09:15:04.087Z,3.10
2019-03-20T09:16:04.162Z,3.00
2019-03-20T09:17:04.129Z,3.10
2019-03-20T09:18:04.148Z,2.80
2019-03-20T09:19:04.107Z,2.90
2019-03-20T09:20:04.123Z,3.20
2019-03-20T09:21:04.131Z,3.80
2019-03-20T09:22:04.138Z,3.30
2019-03-20T09:23:04.136Z,3.00
2019-03-20T09:24:04.150Z,3.30
2019-03-20T09:25:04.151Z,3.20
2019-03-20T09:26:04.219Z,3.00
2019-03-20T09:27:04.176Z,3.10
2019-03-20T09:28:04.180Z,3.40
2019-03-20T09:29:04.189Z,3.00
2019-03-20T09:30:04.184Z,3.00
2019-03-20T09:31:04.164Z,3.10
2019-03-20T09:32:04.185Z,2.90
2019-03-20T09:33:04.200Z,3.20
2019-03-20T09:34:04.287Z,3.30
2019-03-20T09:35:06.843Z,3.30
2019-03-20T09:36:04.182Z,2.90
2019-03-20T09:37:04.200Z,3.40
2019-03-20T09:38:04.264Z,2.80
2019-03-20T09:39:04.255Z,2.90
2019-03-20T09:40:04.212Z,7.20
2019-03-20T09:41:04.224Z,5.60
2019-03-20T09:42:04.215Z,2.90
2019-03-20T09:43:04.297Z,3.10
2019-03-20T09:44:04.278Z,3.00
2019-03-20T09:45:04.239Z,4.70
2019-03-20T09:46:04.243Z,3.00
2019-03-20T09:47:04.245Z,3.20
2019-03-20T09:48:04.264Z,4.40
2019-03-20T09:49:04.293Z,11.40
2019-03-20T09:50:04.269Z,7.70
2019-03-20T09:51:04.287Z,3.20
2019-03-20T09:52:04.285Z,3.20
2019-03-20T09:53:04.261Z,4.10
2019-03-20T09:54:04.319Z,3.60
2019-03-20T09:55:04.308Z,3.60
2019-03-20T09:56:04.318Z,4.20
2019-03-20T09:57:04.278Z,4.20
2019-03-20T09:58:11.614Z,4.10
2019-03-20T09:59:04.338Z,4.10
2019-03-20T10:00:04.350Z,4.10
2019-03-20T10:01:04.306Z,4.20
2019-03-20T10:02:04.313Z,4.20
2019-03-20T10:03:04.320Z,4.10
2019-03-20T10:04:04.329Z,4.40
2019-03-20T10:05:04.356Z,4.50
2019-03-20T10:06:04.342Z,4.50
2019-03-20T10:07:04.334Z,4.70
2019-03-20T10:08:04.360Z,5.50
2019-03-20T10:09:04.409Z,6.90
2019-03-20T10:10:04.408Z,4.80
2019-03-20T10:11:04.373Z,5.50
2019-03-20T10:12:04.363Z,6.00
2019-03-20T10:13:04.379Z,6.50
2019-03-20T10:14:04.378Z,9.10
2019-03-20T10:15:04.391Z,6.80
2019-03-20T10:16:04.411Z,7.30
2019-03-20T10:17:04.411Z,6.10
2019-03-20T10:18:04.400Z,5.10
2019-03-20T10:19:04.418Z,4.80
2019-03-20T10:20:04.424Z,4.80
2019-03-20T10:21:04.408Z,4.90
2019-03-20T10:22:04.427Z,4.80
2019-03-20T10:23:04.483Z,5.10
2019-03-20T10:24:04.450Z,4.70
2019-03-20T10:25:04.471Z,5.10
2019-03-20T10:26:04.479Z,4.50
2019-03-20T10:27:04.446Z,4.70
2019-03-20T10:28:04.445Z,4.70
2019-03-20T10:29:04.468Z,5.80
2019-03-20T10:30:04.454Z,5.40
2019-03-20T10:31:04.552Z,5.60
2019-03-20T10:32:04.494Z,5.20
2019-03-20T10:33:04.469Z,5.80
2019-03-20T10:34:04.470Z,5.70
2019-03-20T10:35:04.504Z,6.00
2019-03-20T10:36:04.501Z,6.10
2019-03-20T10:37:04.534Z,6.00
2019-03-20T10:38:04.510Z,5.90
2019-03-20T10:39:06.716Z,6.00
2019-03-20T10:40:04.510Z,6.10
2019-03-20T10:41:04.516Z,6.10
2019-03-20T10:42:04.572Z,6.50
2019-03-20T10:43:04.528Z,5.70
2019-03-20T10:44:04.544Z,5.80
2019-03-20T10:45:04.543Z,6.20
2019-03-20T10:46:04.545Z,6.00
2019-03-20T10:47:04.577Z,5.60
2019-03-20T10:48:04.562Z,5.40
2019-03-20T10:49:04.622Z,5.60
2019-03-20T10:50:04.571Z,5.70
2019-03-20T10:51:04.564Z,5.40
2019-03-20T10:52:04.611Z,5.80
2019-03-20T10:53:04.644Z,5.90
2019-03-20T10:54:04.599Z,6.20
2019-03-20T10:55:04.604Z,6.40
2019-03-20T10:56:04.630Z,6.60
2019-03-20T10:57:04.604Z,6.30
2019-03-20T10:58:04.595Z,6.30
2019-03-20T10:59:04.642Z,6.20
2019-03-20T11:00:04.613Z,6.30
2019-03-20T11:01:04.621Z,7.10
2019-03-20T11:02:04.629Z,6.70
2019-03-20T11:03:04.627Z,6.90
2019-03-20T11:04:04.695Z,7.00
2019-03-20T11:05:04.677Z,6.90
2019-03-20T11:06:04.663Z,6.80
2019-03-20T11:07:04.657Z,6.60
2019-03-20T11:08:04.652Z,7.20
2019-03-20T11:09:04.669Z,6.60
2019-03-20T11:10:04.714Z,6.70
2019-03-20T11:11:04.679Z,6.90
2019-03-20T11:12:04.691Z,6.80
2019-03-20T11:13:04.692Z,6.90
2019-03-20T11:14:04.718Z,6.90
2019-03-20T11:15:04.775Z,6.40
2019-03-20T11:16:04.722Z,7.10
2019-03-20T11:17:04.736Z,7.00
2019-03-20T11:18:04.718Z,6.70
2019-03-20T11:19:04.722Z,7.10
2019-03-20T11:20:04.750Z,6.70
2019-03-20T11:21:04.735Z,7.00
2019-03-20T11:22:04.767Z,7.40
2019-03-20T11:23:04.765Z,6.70
2019-03-20T11:24:04.760Z,7.10
2019-03-20T11:25:04.774Z,7.90
2019-03-20T11:26:04.767Z,8.40
2019-03-20T11:27:04.785Z,10.40
2019-03-20T11:28:04.800Z,8.80
2019-03-20T11:29:04.803Z,8.60
2019-03-20T11:30:04.821Z,6.60
2019-03-20T11:31:04.798Z,6.60
2019-03-20T11:32:04.799Z,6.90
2019-03-20T11:33:04.794Z,6.20
2019-03-20T11:34:04.805Z,6.50
2019-03-20T11:35:04.850Z,7.70
2019-03-20T11:36:04.854Z,7.50
2019-03-20T11:37:04.896Z,7.20
2019-03-20T11:38:04.834Z,6.70
2019-03-20T11:39:04.893Z,6.60
2019-03-20T11:40:04.905Z,6.70
2019-03-20T11:41:04.928Z,6.60
2019-03-20T11:42:04.876Z,6.50
2019-03-20T11:43:04.887Z,6.70
2019-03-20T11:44:04.874Z,8.00
2019-03-20T11:45:04.930Z,7.60
2019-03-20T11:46:04.901Z,7.30
2019-03-20T11:47:04.926Z,7.80
2019-03-20T11:48:04.943Z,7.30
2019-03-20T11:49:04.909Z,7.40
2019-03-20T11:50:04.918Z,8.60
2019-03-20T11:51:04.942Z,8.60
2019-03-20T11:52:06.285Z,8.20
2019-03-20T11:53:05.054Z,8.40
2019-03-20T11:54:04.962Z,8.60
2019-03-20T11:55:05.010Z,7.90
2019-03-20T11:56:04.977Z,8.00
2019-03-20T11:57:04.973Z,8.50
2019-03-20T11:58:04.982Z,8.70
2019-03-20T11:59:05.011Z,8.60
2019-03-20T12:00:05.026Z,8.10
2019-03-20T12:01:04.990Z,8.20
2019-03-20T12:02:05.030Z,8.10
2019-03-20T12:03:05.017Z,8.20
2019-03-20T12:04:05.045Z,7.40
2019-03-20T12:05:05.041Z,7.30
2019-03-20T12:06:05.038Z,7.70
2019-03-20T12:07:05.032Z,7.50
2019-03-20T12:08:05.071Z,8.10
2019-03-20T12:09:05.062Z,7.90
2019-03-20T12:10:05.058Z,7.70
2019-03-20T12:11:05.124Z,8.00
2019-03-20T12:12:05.093Z,7.90
2019-03-20T12:13:05.089Z,7.90
2019-03-20T12:14:05.103Z,7.70
2019-03-20T12:15:05.091Z,7.00
2019-03-20T12:16:05.171Z,7.50
2019-03-20T12:17:05.147Z,7.80
2019-03-20T12:18:05.129Z,7.90
2019-03-20T12:19:05.147Z,9.20
2019-03-20T12:20:05.244Z,8.70
2019-03-20T12:21:05.162Z,8.60
2019-03-20T12:22:05.167Z,8.00
2019-03-20T12:23:05.158Z,8.40
2019-03-20T12:24:05.170Z,7.80
2019-03-20T12:25:05.182Z,7.70
2019-03-20T12:26:05.244Z,7.60
2019-03-20T12:27:14.575Z,7.90
2019-03-20T12:28:05.252Z,8.00
2019-03-20T12:29:05.214Z,7.90
2019-03-20T12:30:05.256Z,7.90
2019-03-20T12:31:06.711Z,7.10
2019-03-20T12:32:05.250Z,6.80
2019-03-20T12:33:05.230Z,6.80
2019-03-20T12:34:05.236Z,6.70
2019-03-20T12:35:05.248Z,6.40
2019-03-20T12:36:05.307Z,6.40
2019-03-20T12:37:05.274Z,6.50
2019-03-20T12:38:14.183Z,6.10
2019-03-20T12:39:05.279Z,6.50
2019-03-20T12:40:05.328Z,6.60
2019-03-20T12:41:05.328Z,7.00
2019-03-20T12:42:05.345Z,7.00
2019-03-20T12:43:05.364Z,6.40
2019-03-20T12:44:05.322Z,7.20
2019-03-20T12:45:05.372Z,8.00
2019-03-20T12:46:05.323Z,7.20
2019-03-20T12:47:05.357Z,8.20
2019-03-20T12:48:05.380Z,8.40
2019-03-20T12:49:05.355Z,8.00
2019-03-20T12:50:05.414Z,8.10
2019-03-20T12:51:05.389Z,8.40
2019-03-20T12:52:05.378Z,7.90
2019-03-20T12:53:05.477Z,8.50
2019-03-20T12:54:05.422Z,8.10
2019-03-20T12:55:05.393Z,8.40
2019-03-20T12:56:05.424Z,8.00
2019-03-20T12:57:05.416Z,7.60
2019-03-20T12:58:05.414Z,7.80
2019-03-20T12:59:05.462Z,8.30
2019-03-20T13:00:05.535Z,8.70
2019-03-20T13:01:05.439Z,8.40
2019-03-20T13:02:05.448Z,9.00
2019-03-20T13:03:05.505Z,8.90
2019-03-20T13:04:05.465Z,9.20
2019-03-20T13:05:05.531Z,9.40
2019-03-20T13:06:05.478Z,9.80
2019-03-20T13:07:05.482Z,9.90
2019-03-20T13:08:06.298Z,10.20
2019-03-20T13:09:05.545Z,10.80
2019-03-20T13:10:05.504Z,11.00
2019-03-20T13:11:05.596Z,11.00
2019-03-20T13:12:05.557Z,10.40
2019-03-20T13:13:05.579Z,10.40
2019-03-20T13:14:05.637Z,10.30
2019-03-20T13:15:05.554Z,10.30
2019-03-20T13:16:05.560Z,10.50
2019-03-20T13:17:05.581Z,10.20
2019-03-20T13:18:05.599Z,10.40